createdAt,value
2018-06-28T00:00:25.145Z,79.60
2018-06-28T00:02:53.265Z,80.00
2018-06-28T00:05:21.341Z,80.80
2018-06-28T00:07:49.437Z,81.40
2018-06-28T00:10:17.606Z,80.50
2018-06-28T00:12:45.731Z,80.30
2018-06-28T00:15:13.810Z,81.20
2018-06-28T00:17:41.926Z,81.00
2018-06-28T00:20:10.054Z,81.40
2018-06-28T00:22:38.229Z,81.20
2018-06-28T00:25:06.330Z,81.60
2018-06-28T00:27:34.516Z,81.90
2018-06-28T00:30:02.727Z,82.00
2018-06-28T00:32:30.840Z,82.50
2018-06-28T00:34:58.955Z,83.10
2018-06-28T00:37:27.102Z,83.70
2018-06-28T00:39:55.211Z,83.70
2018-06-28T00:42:23.379Z,83.70
2018-06-28T00:44:51.483Z,84.00
2018-06-28T00:47:20.079Z,83.70
2018-06-28T00:49:48.219Z,84.60
2018-06-28T00:52:16.359Z,84.10
2018-06-28T00:54:44.508Z,84.50
2018-06-28T00:57:12.647Z,84.60
2018-06-28T00:59:40.793Z,84.70
2018-06-28T01:02:09.098Z,85.40
2018-06-28T01:04:38.029Z,85.20
2018-06-28T01:07:06.170Z,85.60
2018-06-28T01:09:34.324Z,85.50
2018-06-28T01:14:30.610Z,86.10
2018-06-28T01:16:58.771Z,86.70
2018-06-28T01:19:26.916Z,86.70
2018-06-28T01:21:55.092Z,87.20
2018-06-28T01:24:23.438Z,87.60
2018-06-28T01:26:51.587Z,88.10
2018-06-28T01:29:20.099Z,88.40
2018-06-28T01:31:48.266Z,88.00
2018-06-28T01:34:16.628Z,88.20
2018-06-28T01:36:44.776Z,88.30
2018-06-28T01:39:12.953Z,88.40
2018-06-28T01:41:52.966Z,88.70
2018-06-28T01:44:21.132Z,89.10
2018-06-28T01:46:49.282Z,89.20
2018-06-28T01:49:17.452Z,89.50
2018-06-28T01:51:45.608Z,89.30
2018-06-28T01:54:13.800Z,89.80
2018-06-28T01:56:41.885Z,89.00
2018-06-28T01:59:16.429Z,89.10
2018-06-28T02:01:44.583Z,89.80
2018-06-28T02:04:12.742Z,89.30
2018-06-28T02:06:40.839Z,89.60
2018-06-28T02:09:15.551Z,89.90
2018-06-28T02:11:43.671Z,90.00
2018-06-28T02:14:11.779Z,90.30
2018-06-28T02:16:39.878Z,90.40
2018-06-28T02:19:07.978Z,90.40
2018-06-28T02:21:36.064Z,90.30
2018-06-28T02:26:32.080Z,90.50
2018-06-28T02:29:00.178Z,90.50
2018-06-28T02:36:24.208Z,90.40
2018-06-28T02:38:52.361Z,90.60
2018-06-28T02:41:20.565Z,90.90
2018-06-28T02:43:48.643Z,90.40
2018-06-28T02:46:16.863Z,90.80
2018-06-28T02:48:44.959Z,90.60
2018-06-28T02:51:13.622Z,90.60
2018-06-28T02:53:41.819Z,90.80
2018-06-28T02:58:37.875Z,90.30
2018-06-28T03:01:06.185Z,90.80
2018-06-28T03:03:34.276Z,90.70
2018-06-28T03:06:02.492Z,90.80
2018-06-28T03:10:59.214Z,91.00
2018-06-28T03:13:27.321Z,91.20
2018-06-28T03:15:55.552Z,91.30
2018-06-28T03:18:23.649Z,91.60
2018-06-28T03:20:52.571Z,91.20
2018-06-28T03:23:20.707Z,91.10
2018-06-28T03:25:49.291Z,91.20
2018-06-28T03:28:17.375Z,91.20
2018-06-28T03:30:45.476Z,91.30
2018-06-28T03:33:13.563Z,91.40
2018-06-28T03:35:41.691Z,91.30
2018-06-28T03:38:10.282Z,91.30
2018-06-28T03:43:06.385Z,91.70
2018-06-28T03:45:34.486Z,91.60
2018-06-28T03:48:02.612Z,91.50
2018-06-28T03:50:30.807Z,91.60
2018-06-28T03:52:58.977Z,91.70
2018-06-28T03:55:28.764Z,91.60
2018-06-28T03:57:57.840Z,91.60
2018-06-28T04:00:25.952Z,91.60
2018-06-28T04:02:54.131Z,91.90
2018-06-28T04:05:22.410Z,91.60
2018-06-28T04:07:50.519Z,91.60
2018-06-28T04:10:18.612Z,91.50
2018-06-28T04:12:46.712Z,91.80
2018-06-28T04:15:14.804Z,91.70
2018-06-28T04:17:43.030Z,91.80
2018-06-28T04:20:11.230Z,91.70
2018-06-28T04:25:07.911Z,91.90
2018-06-28T04:27:35.999Z,91.80
2018-06-28T04:30:05.278Z,91.80
2018-06-28T04:32:33.376Z,91.90
2018-06-28T04:35:01.527Z,91.70
2018-06-28T04:37:29.629Z,91.70
2018-06-28T04:39:57.760Z,91.70
2018-06-28T04:42:25.876Z,91.70
2018-06-28T04:44:53.972Z,91.80
2018-06-28T04:47:22.147Z,91.70
2018-06-28T04:49:50.320Z,91.70
2018-06-28T04:52:18.426Z,91.60
2018-06-28T04:54:46.559Z,91.70
2018-06-28T04:57:14.793Z,91.50
2018-06-28T04:59:42.950Z,91.50
2018-06-28T05:02:11.083Z,91.20
2018-06-28T05:04:39.316Z,91.40
2018-06-28T05:07:07.522Z,91.20
2018-06-28T05:09:35.608Z,91.10
2018-06-28T05:12:03.744Z,90.70
2018-06-28T05:14:31.950Z,90.70
2018-06-28T05:17:00.176Z,90.90
2018-06-28T05:19:28.258Z,90.70
2018-06-28T05:21:56.433Z,90.60
2018-06-28T05:24:24.566Z,90.60
2018-06-28T05:26:52.702Z,90.60
2018-06-28T05:29:20.902Z,90.20
2018-06-28T05:31:49.031Z,90.20
2018-06-28T05:34:17.366Z,90.00
2018-06-28T05:36:45.541Z,90.00
2018-06-28T05:39:13.688Z,90.10
2018-06-28T05:41:41.914Z,89.80
2018-06-28T05:44:10.047Z,89.50
2018-06-28T05:46:38.352Z,88.70
2018-06-28T05:49:06.724Z,89.10
2018-06-28T05:51:35.098Z,88.10
2018-06-28T05:54:03.620Z,86.80
2018-06-28T05:56:31.792Z,86.40
2018-06-28T05:58:59.927Z,86.40
2018-06-28T06:01:28.249Z,86.00
2018-06-28T06:03:56.329Z,85.60
2018-06-28T06:06:24.492Z,85.40
2018-06-28T06:08:52.774Z,84.70
2018-06-28T06:11:21.051Z,84.80
2018-06-28T06:13:49.527Z,84.30
2018-06-28T06:16:17.998Z,84.40
2018-06-28T06:18:46.354Z,83.30
2018-06-28T06:21:15.719Z,81.40
2018-06-28T06:23:43.956Z,80.20
2018-06-28T06:28:39.964Z,78.60
2018-06-28T06:31:08.103Z,78.70
2018-06-28T06:33:36.247Z,78.70
2018-06-28T06:36:04.651Z,77.10
2018-06-28T06:38:32.812Z,77.20
2018-06-28T06:41:00.936Z,75.90
2018-06-28T06:43:29.165Z,73.20
2018-06-28T06:45:57.306Z,65.90
2018-06-28T06:48:25.451Z,58.20
2018-06-28T06:50:54.226Z,53.30
2018-06-28T06:53:22.378Z,48.60
2018-06-28T06:55:50.489Z,44.50
2018-06-28T06:58:18.648Z,39.50
2018-06-28T07:00:46.835Z,37.60
2018-06-28T07:03:14.938Z,35.20
2018-06-28T07:05:43.054Z,33.60
2018-06-28T07:08:11.162Z,32.20
2018-06-28T07:10:39.243Z,30.40
2018-06-28T07:13:07.336Z,30.30
2018-06-28T07:15:35.443Z,29.70
2018-06-28T07:18:03.644Z,28.70
2018-06-28T07:20:31.755Z,27.90
2018-06-28T07:22:59.934Z,27.60
2018-06-28T07:25:27.971Z,27.40
2018-06-28T07:27:56.132Z,27.10
2018-06-28T07:30:24.238Z,26.50
2018-06-28T07:32:52.330Z,26.20
2018-06-28T07:35:20.791Z,25.90
2018-06-28T07:37:48.879Z,25.40
2018-06-28T07:40:17.011Z,25.20
2018-06-28T07:42:45.300Z,25.20
2018-06-28T07:45:13.536Z,25.00
2018-06-28T07:47:41.707Z,25.00
2018-06-28T07:50:09.819Z,24.30
2018-06-28T07:52:37.907Z,24.20
2018-06-28T07:55:06.075Z,23.80
2018-06-28T07:57:34.189Z,24.10
2018-06-28T08:00:02.402Z,23.90
2018-06-28T08:02:30.520Z,24.00
2018-06-28T08:04:58.635Z,23.80
2018-06-28T08:07:26.752Z,24.00
2018-06-28T08:12:22.734Z,24.00
2018-06-28T08:14:51.008Z,24.60
2018-06-28T08:17:19.100Z,24.90
2018-06-28T08:19:47.221Z,24.90
2018-06-28T08:22:15.945Z,25.20
2018-06-28T08:24:44.041Z,25.40
2018-06-28T08:27:12.149Z,26.10
2018-06-28T08:29:40.226Z,26.40
2018-06-28T08:32:08.336Z,27.10
2018-06-28T08:34:36.432Z,28.40
2018-06-28T08:37:04.862Z,29.00
2018-06-28T08:39:32.934Z,29.70
2018-06-28T08:42:01.836Z,30.60
2018-06-28T08:44:29.929Z,31.20
2018-06-28T08:46:58.030Z,32.40
2018-06-28T08:49:26.119Z,32.90
2018-06-28T08:51:54.246Z,32.90
2018-06-28T08:54:22.450Z,34.40
2018-06-28T08:56:50.542Z,33.80
2018-06-28T08:59:18.624Z,34.10
2018-06-28T09:01:46.735Z,33.70
2018-06-28T09:04:14.871Z,34.10
2018-06-28T09:09:12.495Z,33.40
2018-06-28T09:11:41.339Z,34.40
2018-06-28T09:14:09.790Z,34.00
2018-06-28T09:16:37.931Z,34.10
2018-06-28T09:19:06.107Z,33.80
2018-06-28T09:21:34.252Z,34.00
2018-06-28T09:24:02.461Z,33.40
2018-06-28T09:26:30.587Z,33.90
2018-06-28T09:28:58.728Z,34.40
2018-06-28T09:31:27.225Z,34.30
2018-06-28T09:33:55.391Z,33.80
2018-06-28T09:36:23.572Z,33.90
2018-06-28T09:38:51.715Z,33.50
2018-06-28T09:41:19.843Z,33.10
2018-06-28T09:43:48.033Z,33.00
2018-06-28T09:46:16.147Z,32.50
2018-06-28T09:48:44.498Z,32.50
2018-06-28T09:51:12.579Z,32.30
2018-06-28T09:53:40.850Z,32.30
2018-06-28T09:56:09.172Z,33.20
2018-06-28T09:58:37.315Z,32.30
2018-06-28T10:01:05.460Z,32.90
2018-06-28T10:03:33.607Z,31.40
2018-06-28T10:06:01.754Z,31.30
2018-06-28T10:08:29.922Z,31.40
2018-06-28T10:10:58.060Z,31.70
2018-06-28T10:13:26.211Z,31.20
2018-06-28T10:15:54.357Z,31.00
2018-06-28T10:18:22.525Z,31.30
2018-06-28T10:20:50.687Z,30.90
2018-06-28T10:23:18.822Z,30.50
2018-06-28T10:25:46.955Z,29.90
2018-06-28T10:28:15.103Z,30.00
2018-06-28T10:30:43.304Z,29.90
2018-06-28T10:33:11.455Z,29.80
2018-06-28T10:35:39.583Z,30.00
2018-06-28T10:38:07.747Z,30.00
2018-06-28T10:40:35.894Z,29.80
2018-06-28T10:43:04.071Z,30.40
2018-06-28T10:45:32.230Z,31.20
2018-06-28T10:48:00.393Z,31.20
2018-06-28T10:50:28.552Z,30.80
2018-06-28T10:52:56.671Z,31.70
2018-06-28T10:55:24.839Z,31.50
2018-06-28T10:57:53.011Z,30.70
2018-06-28T11:00:21.294Z,31.70
2018-06-28T11:02:49.435Z,31.30
2018-06-28T11:05:17.566Z,32.70
2018-06-28T11:07:45.694Z,32.80
2018-06-28T11:10:13.876Z,32.30
2018-06-28T11:12:42.010Z,32.00
2018-06-28T11:15:10.165Z,31.80
2018-06-28T11:17:38.304Z,30.80
2018-06-28T11:20:06.442Z,31.40
2018-06-28T11:22:34.574Z,30.40
2018-06-28T11:25:03.320Z,30.40
2018-06-28T11:27:31.434Z,30.60
2018-06-28T11:29:59.575Z,31.80
2018-06-28T11:32:27.739Z,30.10
2018-06-28T11:34:55.875Z,29.60
2018-06-28T11:37:24.030Z,28.80
2018-06-28T11:39:52.179Z,29.40
2018-06-28T11:44:49.115Z,29.40
2018-06-28T11:47:17.278Z,29.50
2018-06-28T11:49:45.438Z,28.50
2018-06-28T11:52:13.602Z,28.50
2018-06-28T11:54:41.722Z,27.90
2018-06-28T11:57:09.955Z,28.00
2018-06-28T11:59:38.207Z,28.50
2018-06-28T12:02:06.339Z,28.40
2018-06-28T12:04:34.553Z,28.70
2018-06-28T12:07:02.754Z,27.90
2018-06-28T12:09:30.930Z,27.70
2018-06-28T12:11:59.079Z,27.20
2018-06-28T12:14:27.204Z,27.60
2018-06-28T12:16:55.360Z,28.50
2018-06-28T12:19:23.485Z,28.40
2018-06-28T12:21:51.703Z,29.00
2018-06-28T12:24:20.139Z,29.40
2018-06-28T12:26:48.373Z,28.40
2018-06-28T12:29:16.515Z,28.80
2018-06-28T12:31:45.558Z,29.60
2018-06-28T12:34:14.763Z,29.30
2018-06-28T12:36:43.144Z,29.90
2018-06-28T12:39:11.593Z,29.40
2018-06-28T12:41:39.698Z,29.10
2018-06-28T12:44:07.843Z,29.00
2018-06-28T12:47:52.006Z,28.80
2018-06-28T12:50:20.166Z,29.40
2018-06-28T12:52:51.298Z,28.90
2018-06-28T12:55:20.274Z,28.60
2018-06-28T12:57:48.756Z,29.10
2018-06-28T13:00:17.355Z,28.50
2018-06-28T13:02:45.611Z,28.90
2018-06-28T13:05:15.331Z,29.50
2018-06-28T13:07:43.428Z,28.60
2018-06-28T13:10:13.021Z,29.20
2018-06-28T13:12:41.195Z,29.90
2018-06-28T13:15:10.690Z,29.70
2018-06-28T13:17:39.646Z,29.50
2018-06-28T13:20:08.504Z,29.40
2018-06-28T13:22:36.595Z,30.00
2018-06-28T13:25:05.398Z,29.70
2018-06-28T13:27:34.596Z,30.70
2018-06-28T13:30:27.780Z,29.90
2018-06-28T13:32:55.861Z,29.90
2018-06-28T13:35:23.975Z,29.80
2018-06-28T13:37:52.075Z,30.30
2018-06-28T13:40:20.198Z,30.00
2018-06-28T13:42:48.280Z,29.90
2018-06-28T13:45:17.366Z,29.40
2018-06-28T13:47:45.480Z,29.60
2018-06-28T13:50:13.695Z,30.00
2018-06-28T13:52:41.887Z,29.10
2018-06-28T13:55:10.025Z,29.00
2018-06-28T13:57:39.218Z,28.70
2018-06-28T14:00:07.301Z,30.00
2018-06-28T14:02:35.977Z,29.60
2018-06-28T14:05:04.383Z,30.00
2018-06-28T14:07:33.025Z,29.50
2018-06-28T14:12:29.643Z,29.30
2018-06-28T14:14:57.934Z,29.80
2018-06-28T14:17:26.084Z,30.90
2018-06-28T14:19:54.218Z,30.00
2018-06-28T14:22:22.414Z,30.90
2018-06-28T14:24:50.498Z,31.70
2018-06-28T14:27:18.674Z,31.40
2018-06-28T14:29:46.807Z,30.20
2018-06-28T14:32:14.966Z,30.70
2018-06-28T14:34:43.114Z,30.70
2018-06-28T14:37:11.450Z,30.30
2018-06-28T14:39:39.610Z,31.30
2018-06-28T14:42:07.759Z,30.00
2018-06-28T14:44:35.881Z,31.20
2018-06-28T14:47:04.026Z,29.90
2018-06-28T14:49:32.245Z,31.10
2018-06-28T14:52:00.367Z,30.00
2018-06-28T14:54:28.536Z,30.70
2018-06-28T14:56:56.801Z,30.60
2018-06-28T14:59:24.907Z,30.60
2018-06-28T15:01:53.019Z,31.50
2018-06-28T15:04:21.805Z,31.60
2018-06-28T15:06:50.082Z,30.80
2018-06-28T15:09:18.216Z,30.70
2018-06-28T15:11:46.343Z,30.90
2018-06-28T15:14:14.762Z,30.70
2018-06-28T15:16:42.893Z,30.90
2018-06-28T15:19:11.006Z,32.10
2018-06-28T15:21:39.198Z,30.90
2018-06-28T15:24:07.254Z,31.20
2018-06-28T15:26:36.215Z,30.60
2018-06-28T15:29:04.338Z,30.10
2018-06-28T15:31:32.464Z,30.40
2018-06-28T15:38:57.383Z,30.00
2018-06-28T15:41:25.536Z,30.10
2018-06-28T15:43:54.696Z,30.40
2018-06-28T15:46:22.838Z,30.00
2018-06-28T15:48:50.994Z,31.00
2018-06-28T15:51:19.123Z,31.70
2018-06-28T15:53:47.354Z,31.10
2018-06-28T15:56:15.482Z,30.60
2018-06-28T15:58:43.606Z,30.90
2018-06-28T16:03:39.626Z,31.40
2018-06-28T16:06:07.764Z,31.10
2018-06-28T16:08:35.987Z,33.20
2018-06-28T16:11:10.841Z,33.20
2018-06-28T16:13:39.058Z,32.40
2018-06-28T16:16:07.270Z,32.80
2018-06-28T16:18:35.430Z,31.00
2018-06-28T16:21:03.564Z,31.50
2018-06-28T16:23:31.686Z,31.60
2018-06-28T16:26:00.157Z,31.70
2018-06-28T16:28:28.310Z,31.50
2018-06-28T16:30:56.446Z,31.90
2018-06-28T16:33:24.580Z,32.20
2018-06-28T16:35:52.733Z,32.30
2018-06-28T16:38:20.944Z,31.60
2018-06-28T16:40:49.894Z,32.50
2018-06-28T16:43:18.951Z,32.50
2018-06-28T16:45:47.267Z,33.00
2018-06-28T16:48:15.390Z,32.50
2018-06-28T16:50:43.532Z,33.00
2018-06-28T16:53:11.792Z,32.60
2018-06-28T16:55:40.114Z,33.80
2018-06-28T16:58:09.007Z,33.60
2018-06-28T17:00:37.169Z,33.00
2018-06-28T17:03:05.262Z,34.00
2018-06-28T17:05:33.343Z,33.60
2018-06-28T17:08:01.482Z,33.80
2018-06-28T17:10:29.684Z,34.60
2018-06-28T17:12:57.786Z,35.30
2018-06-28T17:15:25.889Z,34.00
2018-06-28T17:17:54.063Z,34.60
2018-06-28T17:20:22.181Z,34.20
2018-06-28T17:22:50.250Z,34.20
2018-06-28T17:25:18.332Z,33.70
2018-06-28T17:27:46.469Z,33.30
2018-06-28T17:30:14.561Z,34.90
2018-06-28T17:32:42.644Z,33.40
2018-06-28T17:35:10.755Z,34.20
2018-06-28T17:37:38.852Z,34.60
2018-06-28T17:40:08.633Z,34.60
2018-06-28T17:42:38.353Z,34.70
2018-06-28T17:45:06.439Z,35.10
2018-06-28T17:47:34.804Z,35.00
2018-06-28T17:50:03.018Z,35.50
2018-06-28T17:52:31.138Z,35.20
2018-06-28T17:54:59.311Z,35.10
2018-06-28T17:57:27.715Z,35.20
2018-06-28T17:59:55.931Z,35.30
2018-06-28T18:02:24.047Z,35.60
2018-06-28T18:04:52.234Z,35.30
2018-06-28T18:07:20.361Z,35.60
2018-06-28T18:09:48.635Z,35.80
2018-06-28T18:12:16.734Z,35.80
2018-06-28T18:14:44.911Z,35.90
2018-06-28T18:17:13.022Z,35.90
2018-06-28T18:19:41.123Z,36.20
2018-06-28T18:22:09.435Z,36.40
2018-06-28T18:24:37.579Z,36.30
2018-06-28T18:27:05.704Z,36.50
2018-06-28T18:29:34.010Z,37.50
2018-06-28T18:32:02.117Z,36.90
2018-06-28T18:34:30.344Z,36.80
2018-06-28T18:36:58.473Z,37.50
2018-06-28T18:39:26.665Z,36.60
2018-06-28T18:41:54.778Z,36.80
2018-06-28T18:44:23.094Z,37.00
2018-06-28T18:46:51.639Z,37.10
2018-06-28T18:49:19.780Z,37.30
2018-06-28T18:51:47.935Z,37.90
2018-06-28T18:54:16.151Z,37.70
2018-06-28T18:56:44.820Z,37.80
2018-06-28T18:59:13.742Z,37.70
2018-06-28T19:01:41.892Z,37.70
2018-06-28T19:04:11.684Z,37.60
2018-06-28T19:06:40.144Z,37.60
2018-06-28T19:11:37.844Z,39.10
2018-06-28T19:15:13.159Z,38.50
2018-06-28T19:17:41.285Z,39.00
2018-06-28T19:20:12.371Z,39.60
2018-06-28T19:22:45.971Z,39.40
2018-06-28T19:25:15.167Z,39.90
2018-06-28T19:27:43.289Z,40.60
2018-06-28T19:30:17.369Z,40.60
2018-06-28T19:32:46.367Z,40.50
2018-06-28T19:35:16.547Z,41.30
2018-06-28T19:37:48.788Z,40.50
2018-06-28T19:40:22.595Z,39.80
2018-06-28T19:43:00.036Z,40.40
2018-06-28T19:45:28.216Z,40.60
2018-06-28T19:47:56.327Z,40.70
2018-06-28T19:53:08.171Z,42.00
2018-06-28T19:55:36.337Z,41.50
2018-06-28T19:58:04.474Z,41.70
2018-06-28T20:03:11.492Z,41.80
2018-06-28T20:05:39.724Z,41.50
2018-06-28T20:08:07.882Z,42.30
2018-06-28T20:10:39.258Z,41.90
2018-06-28T20:15:20.471Z,41.90
2018-06-28T20:18:01.406Z,42.20
2018-06-28T20:20:31.018Z,43.70
2018-06-28T20:22:59.192Z,43.10
2018-06-28T20:25:28.728Z,43.50
2018-06-28T20:28:02.472Z,43.30
2018-06-28T20:30:36.028Z,43.00
2018-06-28T20:35:38.458Z,47.60
2018-06-28T20:38:08.267Z,45.90
2018-06-28T20:40:37.315Z,49.60
2018-06-28T20:43:07.948Z,50.00
2018-06-28T20:45:36.099Z,49.70
2018-06-28T20:48:04.211Z,47.20
2018-06-28T20:50:32.691Z,48.10
2018-06-28T20:55:29.910Z,47.90
2018-06-28T20:57:59.279Z,47.50
2018-06-28T21:00:27.587Z,50.80
2018-06-28T21:02:55.880Z,46.10
2018-06-28T21:05:24.218Z,47.10
2018-06-28T21:07:52.315Z,46.90
2018-06-28T21:10:20.467Z,47.80
2018-06-28T21:12:48.582Z,47.10
2018-06-28T21:15:16.919Z,48.40
2018-06-28T21:17:45.072Z,47.70
2018-06-28T21:20:13.213Z,50.10
2018-06-28T21:22:41.357Z,48.30
2018-06-28T21:25:09.435Z,47.70
2018-06-28T21:27:37.630Z,48.00
2018-06-28T21:30:06.140Z,49.00
2018-06-28T21:32:34.274Z,49.00
2018-06-28T21:35:02.339Z,49.30
2018-06-28T21:37:30.558Z,49.00
2018-06-28T21:42:26.671Z,49.30
2018-06-28T21:44:54.763Z,49.30
2018-06-28T21:47:22.937Z,50.30
2018-06-28T21:49:51.187Z,49.30
2018-06-28T21:52:19.320Z,49.50
2018-06-28T21:54:47.410Z,50.00
2018-06-28T21:57:21.926Z,49.40
2018-06-28T21:59:50.078Z,49.60
2018-06-28T22:02:18.231Z,50.20
2018-06-28T22:04:46.888Z,50.50
2018-06-28T22:07:15.032Z,50.20
2018-06-28T22:09:43.121Z,51.30
2018-06-28T22:12:11.297Z,51.70
2018-06-28T22:14:39.411Z,53.50
2018-06-28T22:17:07.509Z,50.40
2018-06-28T22:19:35.638Z,51.80
2018-06-28T22:22:03.818Z,51.60
2018-06-28T22:24:32.486Z,51.90
2018-06-28T22:27:00.610Z,51.60
2018-06-28T22:29:28.725Z,51.70
2018-06-28T22:31:56.818Z,52.30
2018-06-28T22:34:24.967Z,53.70
2018-06-28T22:36:53.152Z,53.30
2018-06-28T22:39:21.243Z,53.40
2018-06-28T22:41:49.346Z,53.40
2018-06-28T22:44:17.560Z,56.50
2018-06-28T22:46:45.658Z,54.00
2018-06-28T22:49:13.770Z,55.00
2018-06-28T22:51:41.919Z,54.80
2018-06-28T22:54:10.041Z,54.90
2018-06-28T22:56:38.186Z,54.40
2018-06-28T22:59:06.416Z,55.60
2018-06-28T23:01:34.661Z,54.90
2018-06-28T23:04:02.852Z,55.30
2018-06-28T23:06:30.966Z,55.70
2018-06-28T23:08:59.130Z,55.50
2018-06-28T23:11:27.256Z,55.90
2018-06-28T23:13:55.378Z,56.00
2018-06-28T23:16:23.539Z,55.90
2018-06-28T23:18:51.842Z,56.50
2018-06-28T23:21:20.002Z,56.50
2018-06-28T23:23:48.170Z,57.20
2018-06-28T23:26:16.323Z,57.50
2018-06-28T23:28:44.471Z,57.10
2018-06-28T23:31:12.703Z,57.30
2018-06-28T23:33:40.823Z,58.40
2018-06-28T23:36:08.962Z,58.50
2018-06-28T23:38:37.130Z,58.90
2018-06-28T23:41:05.331Z,58.60
2018-06-28T23:43:33.485Z,60.10
2018-06-28T23:46:01.652Z,59.50
2018-06-28T23:48:29.784Z,59.60
2018-06-28T23:50:57.922Z,60.20
2018-06-28T23:53:26.100Z,61.00
2018-06-28T23:55:54.263Z,61.50
2018-06-28T23:58:22.934Z,61.50
